sensor_id;sensor_type;location;lat;lon;timestamp;P1;durP1;ratioP1;P2;durP2;ratioP2
19758;SDS011;10038;42.662;23.278;2023-07-28T00:01:51;3.23;;;3.03;;
19758;SDS011;10038;42.662;23.278;2023-07-28T00:04:19;6.70;;;2.70;;
19758;SDS011;10038;42.662;23.278;2023-07-28T00:06:46;4.07;;;2.70;;
19758;SDS011;10038;42.662;23.278;2023-07-28T00:09:12;2.70;;;2.50;;
19758;SDS011;10038;42.662;23.278;2023-07-28T00:11:39;5.50;;;3.53;;
19758;SDS011;10038;42.662;23.278;2023-07-28T00:14:05;3.60;;;3.10;;
19758;SDS011;10038;42.662;23.278;2023-07-28T00:16:32;4.63;;;2.53;;
19758;SDS011;10038;42.662;23.278;2023-07-28T00:18:59;3.40;;;2.83;;
19758;SDS011;10038;42.662;23.278;2023-07-28T00:21:27;3.47;;;3.13;;
19758;SDS011;10038;42.662;23.278;2023-07-28T00:23:53;3.23;;;2.90;;
19758;SDS011;10038;42.662;23.278;2023-07-28T00:26:20;3.10;;;2.80;;
19758;SDS011;10038;42.662;23.278;2023-07-28T00:28:47;3.37;;;2.70;;
19758;SDS011;10038;42.662;23.278;2023-07-28T00:31:13;2.90;;;2.57;;
19758;SDS011;10038;42.662;23.278;2023-07-28T00:33:40;6.90;;;3.00;;
19758;SDS011;10038;42.662;23.278;2023-07-28T00:36:07;3.80;;;3.03;;
19758;SDS011;10038;42.662;23.278;2023-07-28T00:38:35;3.20;;;3.00;;
19758;SDS011;10038;42.662;23.278;2023-07-28T00:41:01;2.83;;;2.53;;
19758;SDS011;10038;42.662;23.278;2023-07-28T00:43:28;2.70;;;2.50;;
19758;SDS011;10038;42.662;23.278;2023-07-28T00:45:54;3.20;;;3.00;;
19758;SDS011;10038;42.662;23.278;2023-07-28T00:48:21;2.80;;;2.57;;
19758;SDS011;10038;42.662;23.278;2023-07-28T00:50:48;3.47;;;3.17;;
19758;SDS011;10038;42.662;23.278;2023-07-28T00:53:15;3.67;;;3.37;;
19758;SDS011;10038;42.662;23.278;2023-07-28T00:55:43;3.83;;;3.50;;
19758;SDS011;10038;42.662;23.278;2023-07-28T00:58:09;3.90;;;3.60;;
19758;SDS011;10038;42.662;23.278;2023-07-28T01:00:36;3.40;;;3.10;;
19758;SDS011;10038;42.662;23.278;2023-07-28T01:03:02;7.17;;;3.53;;
19758;SDS011;10038;42.662;23.278;2023-07-28T01:05:32;5.87;;;4.00;;
19758;SDS011;10038;42.662;23.278;2023-07-28T01:08:01;5.13;;;4.73;;
19758;SDS011;10038;42.662;23.278;2023-07-28T01:10:30;4.83;;;4.43;;
19758;SDS011;10038;42.662;23.278;2023-07-28T01:12:58;5.93;;;5.37;;
19758;SDS011;10038;42.662;23.278;2023-07-28T01:15:25;4.77;;;4.37;;
19758;SDS011;10038;42.662;23.278;2023-07-28T01:17:51;5.97;;;4.97;;
19758;SDS011;10038;42.662;23.278;2023-07-28T01:20:18;5.70;;;5.20;;
19758;SDS011;10038;42.662;23.278;2023-07-28T01:22:49;6.60;;;6.00;;
19758;SDS011;10038;42.662;23.278;2023-07-28T01:25:25;7.43;;;5.83;;
19758;SDS011;10038;42.662;23.278;2023-07-28T01:27:56;7.50;;;6.80;;
19758;SDS011;10038;42.662;23.278;2023-07-28T01:30:24;6.03;;;5.53;;
19758;SDS011;10038;42.662;23.278;2023-07-28T01:32:53;6.67;;;6.07;;
19758;SDS011;10038;42.662;23.278;2023-07-28T01:35:20;6.47;;;5.90;;
19758;SDS011;10038;42.662;23.278;2023-07-28T01:37:46;6.43;;;5.93;;
19758;SDS011;10038;42.662;23.278;2023-07-28T01:40:16;6.50;;;5.90;;
19758;SDS011;10038;42.662;23.278;2023-07-28T01:42:42;6.03;;;5.53;;
19758;SDS011;10038;42.662;23.278;2023-07-28T01:45:11;7.43;;;6.83;;
19758;SDS011;10038;42.662;23.278;2023-07-28T01:47:37;6.30;;;5.77;;
19758;SDS011;10038;42.662;23.278;2023-07-28T01:50:04;11.00;;;6.10;;
19758;SDS011;10038;42.662;23.278;2023-07-28T01:52:31;7.80;;;6.37;;
19758;SDS011;10038;42.662;23.278;2023-07-28T01:54:57;6.93;;;6.33;;
19758;SDS011;10038;42.662;23.278;2023-07-28T01:57:24;7.70;;;6.10;;
19758;SDS011;10038;42.662;23.278;2023-07-28T01:59:52;6.50;;;6.00;;
19758;SDS011;10038;42.662;23.278;2023-07-28T02:02:20;6.70;;;6.10;;
19758;SDS011;10038;42.662;23.278;2023-07-28T02:04:46;7.27;;;6.20;;
19758;SDS011;10038;42.662;23.278;2023-07-28T02:07:13;7.67;;;5.43;;
19758;SDS011;10038;42.662;23.278;2023-07-28T02:09:40;10.90;;;6.93;;
19758;SDS011;10038;42.662;23.278;2023-07-28T02:12:07;6.83;;;6.20;;
19758;SDS011;10038;42.662;23.278;2023-07-28T02:14:33;6.90;;;6.30;;
19758;SDS011;10038;42.662;23.278;2023-07-28T02:17:00;6.63;;;5.50;;
19758;SDS011;10038;42.662;23.278;2023-07-28T02:19:28;5.90;;;5.40;;
19758;SDS011;10038;42.662;23.278;2023-07-28T02:21:54;6.53;;;5.90;;
19758;SDS011;10038;42.662;23.278;2023-07-28T02:24:21;6.60;;;6.00;;
19758;SDS011;10038;42.662;23.278;2023-07-28T02:27:06;6.03;;;5.53;;
19758;SDS011;10038;42.662;23.278;2023-07-28T02:29:32;6.60;;;6.00;;
19758;SDS011;10038;42.662;23.278;2023-07-28T02:31:59;5.63;;;5.17;;
19758;SDS011;10038;42.662;23.278;2023-07-28T02:34:25;6.70;;;6.13;;
19758;SDS011;10038;42.662;23.278;2023-07-28T02:36:53;6.63;;;6.07;;
19758;SDS011;10038;42.662;23.278;2023-07-28T02:39:20;6.00;;;5.43;;
19758;SDS011;10038;42.662;23.278;2023-07-28T02:41:46;9.53;;;6.30;;
19758;SDS011;10038;42.662;23.278;2023-07-28T02:44:13;6.53;;;6.00;;
19758;SDS011;10038;42.662;23.278;2023-07-28T02:46:40;10.03;;;5.40;;
19758;SDS011;10038;42.662;23.278;2023-07-28T02:49:06;6.80;;;5.63;;
19758;SDS011;10038;42.662;23.278;2023-07-28T02:51:33;6.33;;;5.67;;
19758;SDS011;10038;42.662;23.278;2023-07-28T02:54:01;8.20;;;6.60;;
19758;SDS011;10038;42.662;23.278;2023-07-28T02:56:28;5.97;;;5.50;;
19758;SDS011;10038;42.662;23.278;2023-07-28T02:58:59;5.60;;;5.10;;
19758;SDS011;10038;42.662;23.278;2023-07-28T03:01:26;7.60;;;5.77;;
19758;SDS011;10038;42.662;23.278;2023-07-28T03:03:53;6.67;;;5.37;;
19758;SDS011;10038;42.662;23.278;2023-07-28T03:06:19;5.70;;;5.20;;
19758;SDS011;10038;42.662;23.278;2023-07-28T03:08:46;6.20;;;5.47;;
19758;SDS011;10038;42.662;23.278;2023-07-28T03:11:14;5.93;;;4.47;;
19758;SDS011;10038;42.662;23.278;2023-07-28T03:13:41;6.30;;;5.40;;
19758;SDS011;10038;42.662;23.278;2023-07-28T03:16:07;6.73;;;5.63;;
19758;SDS011;10038;42.662;23.278;2023-07-28T03:18:34;8.87;;;5.20;;
19758;SDS011;10038;42.662;23.278;2023-07-28T03:21:01;19.83;;;5.53;;
19758;SDS011;10038;42.662;23.278;2023-07-28T03:23:27;8.73;;;5.77;;
19758;SDS011;10038;42.662;23.278;2023-07-28T03:25:54;9.70;;;5.60;;
19758;SDS011;10038;42.662;23.278;2023-07-28T03:28:22;7.80;;;6.10;;
19758;SDS011;10038;42.662;23.278;2023-07-28T03:30:48;12.87;;;7.00;;
19758;SDS011;10038;42.662;23.278;2023-07-28T03:33:15;27.10;;;7.53;;
19758;SDS011;10038;42.662;23.278;2023-07-28T03:35:42;8.30;;;6.60;;
19758;SDS011;10038;42.662;23.278;2023-07-28T03:38:08;18.30;;;7.27;;
19758;SDS011;10038;42.662;23.278;2023-07-28T03:40:35;17.77;;;6.70;;
19758;SDS011;10038;42.662;23.278;2023-07-28T03:43:01;7.43;;;5.80;;
19758;SDS011;10038;42.662;23.278;2023-07-28T03:45:29;9.40;;;5.70;;
19758;SDS011;10038;42.662;23.278;2023-07-28T03:47:56;9.53;;;7.40;;
19758;SDS011;10038;42.662;23.278;2023-07-28T03:50:22;8.53;;;6.27;;
19758;SDS011;10038;42.662;23.278;2023-07-28T03:52:51;8.17;;;6.30;;
19758;SDS011;10038;42.662;23.278;2023-07-28T03:55:18;6.37;;;5.87;;
19758;SDS011;10038;42.662;23.278;2023-07-28T03:57:44;10.67;;;6.77;;
19758;SDS011;10038;42.662;23.278;2023-07-28T04:00:11;9.70;;;6.37;;
19758;SDS011;10038;42.662;23.278;2023-07-28T04:02:40;7.20;;;6.37;;
19758;SDS011;10038;42.662;23.278;2023-07-28T04:05:07;7.43;;;6.10;;
19758;SDS011;10038;42.662;23.278;2023-07-28T04:07:33;7.17;;;6.30;;
19758;SDS011;10038;42.662;23.278;2023-07-28T04:10:00;8.10;;;7.30;;
19758;SDS011;10038;42.662;23.278;2023-07-28T04:12:26;10.30;;;7.13;;
19758;SDS011;10038;42.662;23.278;2023-07-28T04:14:53;7.77;;;7.07;;
19758;SDS011;10038;42.662;23.278;2023-07-28T04:17:20;7.20;;;6.50;;
19758;SDS011;10038;42.662;23.278;2023-07-28T04:19:48;6.97;;;6.47;;
19758;SDS011;10038;42.662;23.278;2023-07-28T04:22:14;7.40;;;6.70;;
19758;SDS011;10038;42.662;23.278;2023-07-28T04:24:46;7.63;;;6.40;;
19758;SDS011;10038;42.662;23.278;2023-07-28T04:27:12;7.07;;;6.37;;
19758;SDS011;10038;42.662;23.278;2023-07-28T04:29:39;9.47;;;7.00;;
19758;SDS011;10038;42.662;23.278;2023-07-28T04:32:06;9.30;;;8.40;;
19758;SDS011;10038;42.662;23.278;2023-07-28T04:34:32;8.17;;;7.37;;
19758;SDS011;10038;42.662;23.278;2023-07-28T04:37:00;12.13;;;6.40;;
19758;SDS011;10038;42.662;23.278;2023-07-28T04:39:27;10.10;;;6.80;;
19758;SDS011;10038;42.662;23.278;2023-07-28T04:41:53;7.40;;;6.70;;
19758;SDS011;10038;42.662;23.278;2023-07-28T04:44:20;9.50;;;7.40;;
19758;SDS011;10038;42.662;23.278;2023-07-28T04:46:47;7.40;;;6.80;;
19758;SDS011;10038;42.662;23.278;2023-07-28T04:49:13;7.33;;;6.73;;
19758;SDS011;10038;42.662;23.278;2023-07-28T04:51:40;7.83;;;6.63;;
19758;SDS011;10038;42.662;23.278;2023-07-28T04:54:08;7.60;;;6.50;;
19758;SDS011;10038;42.662;23.278;2023-07-28T04:56:35;6.97;;;6.27;;
19758;SDS011;10038;42.662;23.278;2023-07-28T04:59:01;7.07;;;6.47;;
19758;SDS011;10038;42.662;23.278;2023-07-28T05:01:28;6.70;;;6.20;;
19758;SDS011;10038;42.662;23.278;2023-07-28T05:03:54;6.93;;;6.30;;
19758;SDS011;10038;42.662;23.278;2023-07-28T05:06:21;6.10;;;5.60;;
19758;SDS011;10038;42.662;23.278;2023-07-28T05:08:47;6.60;;;5.73;;
19758;SDS011;10038;42.662;23.278;2023-07-28T05:11:15;5.80;;;5.30;;
19758;SDS011;10038;42.662;23.278;2023-07-28T05:13:42;5.73;;;5.30;;
19758;SDS011;10038;42.662;23.278;2023-07-28T05:16:09;6.83;;;6.17;;
19758;SDS011;10038;42.662;23.278;2023-07-28T05:18:35;7.50;;;5.70;;
19758;SDS011;10038;42.662;23.278;2023-07-28T05:21:02;8.27;;;6.90;;
19758;SDS011;10038;42.662;23.278;2023-07-28T05:23:29;7.10;;;6.50;;
19758;SDS011;10038;42.662;23.278;2023-07-28T05:25:55;8.30;;;6.30;;
19758;SDS011;10038;42.662;23.278;2023-07-28T05:28:23;5.67;;;5.23;;
19758;SDS011;10038;42.662;23.278;2023-07-28T05:30:50;6.77;;;5.60;;
19758;SDS011;10038;42.662;23.278;2023-07-28T05:33:20;6.83;;;5.60;;
19758;SDS011;10038;42.662;23.278;2023-07-28T05:35:46;11.60;;;6.67;;
19758;SDS011;10038;42.662;23.278;2023-07-28T05:38:13;6.07;;;5.40;;
19758;SDS011;10038;42.662;23.278;2023-07-28T05:40:39;7.00;;;5.63;;
19758;SDS011;10038;42.662;23.278;2023-07-28T05:43:06;9.40;;;6.50;;
19758;SDS011;10038;42.662;23.278;2023-07-28T05:45:34;9.70;;;5.67;;
19758;SDS011;10038;42.662;23.278;2023-07-28T05:48:00;6.53;;;5.77;;
19758;SDS011;10038;42.662;23.278;2023-07-28T05:50:27;8.90;;;5.50;;
19758;SDS011;10038;42.662;23.278;2023-07-28T05:52:53;8.23;;;5.30;;
19758;SDS011;10038;42.662;23.278;2023-07-28T05:55:26;6.17;;;5.53;;
19758;SDS011;10038;42.662;23.278;2023-07-28T05:57:52;5.40;;;4.90;;
19758;SDS011;10038;42.662;23.278;2023-07-28T06:00:19;7.03;;;5.40;;
19758;SDS011;10038;42.662;23.278;2023-07-28T06:02:47;7.43;;;5.10;;
19758;SDS011;10038;42.662;23.278;2023-07-28T06:05:13;7.13;;;5.40;;
19758;SDS011;10038;42.662;23.278;2023-07-28T06:07:40;5.30;;;4.17;;
19758;SDS011;10038;42.662;23.278;2023-07-28T06:10:07;8.43;;;4.80;;
19758;SDS011;10038;42.662;23.278;2023-07-28T06:12:34;5.40;;;4.50;;
19758;SDS011;10038;42.662;23.278;2023-07-28T06:15:01;6.03;;;4.87;;
19758;SDS011;10038;42.662;23.278;2023-07-28T06:17:28;6.37;;;4.53;;
19758;SDS011;10038;42.662;23.278;2023-07-28T06:19:56;6.77;;;4.80;;
19758;SDS011;10038;42.662;23.278;2023-07-28T06:22:22;6.00;;;5.43;;
19758;SDS011;10038;42.662;23.278;2023-07-28T06:24:49;5.67;;;5.10;;
19758;SDS011;10038;42.662;23.278;2023-07-28T06:27:16;5.97;;;5.27;;
19758;SDS011;10038;42.662;23.278;2023-07-28T06:29:43;5.63;;;4.73;;
19758;SDS011;10038;42.662;23.278;2023-07-28T06:32:09;8.67;;;5.67;;
19758;SDS011;10038;42.662;23.278;2023-07-28T06:34:36;5.03;;;4.50;;
19758;SDS011;10038;42.662;23.278;2023-07-28T06:37:04;6.97;;;5.40;;
19758;SDS011;10038;42.662;23.278;2023-07-28T06:39:31;12.70;;;5.63;;
19758;SDS011;10038;42.662;23.278;2023-07-28T06:41:57;12.53;;;5.47;;
19758;SDS011;10038;42.662;23.278;2023-07-28T06:44:24;6.93;;;5.60;;
19758;SDS011;10038;42.662;23.278;2023-07-28T06:46:51;5.40;;;4.90;;
19758;SDS011;10038;42.662;23.278;2023-07-28T06:49:17;5.43;;;4.93;;
19758;SDS011;10038;42.662;23.278;2023-07-28T06:51:44;5.93;;;4.73;;
19758;SDS011;10038;42.662;23.278;2023-07-28T06:54:12;5.83;;;4.07;;
19758;SDS011;10038;42.662;23.278;2023-07-28T06:56:38;7.50;;;4.53;;
19758;SDS011;10038;42.662;23.278;2023-07-28T06:59:05;8.50;;;5.40;;
19758;SDS011;10038;42.662;23.278;2023-07-28T07:01:32;6.73;;;4.90;;
19758;SDS011;10038;42.662;23.278;2023-07-28T07:03:58;6.87;;;3.40;;
19758;SDS011;10038;42.662;23.278;2023-07-28T07:06:25;10.13;;;3.90;;
19758;SDS011;10038;42.662;23.278;2023-07-28T07:08:55;4.30;;;3.90;;
19758;SDS011;10038;42.662;23.278;2023-07-28T07:11:23;5.03;;;4.63;;
19758;SDS011;10038;42.662;23.278;2023-07-28T07:13:50;4.50;;;4.10;;
19758;SDS011;10038;42.662;23.278;2023-07-28T07:16:16;5.57;;;3.80;;
19758;SDS011;10038;42.662;23.278;2023-07-28T07:18:43;4.10;;;3.80;;
19758;SDS011;10038;42.662;23.278;2023-07-28T07:21:10;5.03;;;3.13;;
19758;SDS011;10038;42.662;23.278;2023-07-28T07:23:36;3.70;;;3.40;;
19758;SDS011;10038;42.662;23.278;2023-07-28T07:26:03;8.43;;;3.40;;
19758;SDS011;10038;42.662;23.278;2023-07-28T07:28:31;7.57;;;3.87;;
19758;SDS011;10038;42.662;23.278;2023-07-28T07:31:00;7.37;;;3.50;;
19758;SDS011;10038;42.662;23.278;2023-07-28T07:33:29;5.93;;;4.00;;
19758;SDS011;10038;42.662;23.278;2023-07-28T07:35:55;8.33;;;3.40;;
19758;SDS011;10038;42.662;23.278;2023-07-28T07:38:22;5.47;;;3.20;;
19758;SDS011;10038;42.662;23.278;2023-07-28T07:40:48;5.03;;;3.00;;
19758;SDS011;10038;42.662;23.278;2023-07-28T07:43:15;3.23;;;3.03;;
19758;SDS011;10038;42.662;23.278;2023-07-28T07:45:47;4.53;;;3.10;;
19758;SDS011;10038;42.662;23.278;2023-07-28T07:48:15;3.70;;;3.40;;
19758;SDS011;10038;42.662;23.278;2023-07-28T07:50:42;5.23;;;3.50;;
19758;SDS011;10038;42.662;23.278;2023-07-28T07:53:08;3.37;;;3.07;;
19758;SDS011;10038;42.662;23.278;2023-07-28T07:55:35;5.33;;;3.23;;
19758;SDS011;10038;42.662;23.278;2023-07-28T07:58:02;6.27;;;3.30;;
19758;SDS011;10038;42.662;23.278;2023-07-28T08:00:28;3.83;;;3.53;;
19758;SDS011;10038;42.662;23.278;2023-07-28T08:02:56;3.97;;;3.07;;
19758;SDS011;10038;42.662;23.278;2023-07-28T08:05:23;4.43;;;3.13;;
19758;SDS011;10038;42.662;23.278;2023-07-28T08:07:50;5.23;;;3.87;;
19758;SDS011;10038;42.662;23.278;2023-07-28T08:10:16;3.90;;;3.23;;
19758;SDS011;10038;42.662;23.278;2023-07-28T08:12:43;5.50;;;4.23;;
19758;SDS011;10038;42.662;23.278;2023-07-28T08:15:12;4.30;;;3.53;;
19758;SDS011;10038;42.662;23.278;2023-07-28T08:17:38;3.97;;;3.60;;
19758;SDS011;10038;42.662;23.278;2023-07-28T08:20:07;3.30;;;3.00;;
19758;SDS011;10038;42.662;23.278;2023-07-28T08:22:34;8.60;;;4.30;;
19758;SDS011;10038;42.662;23.278;2023-07-28T08:25:00;4.47;;;3.30;;
19758;SDS011;10038;42.662;23.278;2023-07-28T08:27:27;4.13;;;3.83;;
19758;SDS011;10038;42.662;23.278;2023-07-28T08:30:19;4.50;;;3.53;;
19758;SDS011;10038;42.662;23.278;2023-07-28T08:32:46;3.47;;;3.20;;
19758;SDS011;10038;42.662;23.278;2023-07-28T08:35:15;8.13;;;3.30;;
19758;SDS011;10038;42.662;23.278;2023-07-28T08:37:42;10.23;;;3.13;;
19758;SDS011;10038;42.662;23.278;2023-07-28T08:40:08;5.00;;;3.07;;
19758;SDS011;10038;42.662;23.278;2023-07-28T08:42:36;6.07;;;3.50;;
19758;SDS011;10038;42.662;23.278;2023-07-28T08:45:03;5.07;;;3.17;;
19758;SDS011;10038;42.662;23.278;2023-07-28T08:47:31;7.20;;;3.73;;
19758;SDS011;10038;42.662;23.278;2023-07-28T08:49:57;4.67;;;3.67;;
19758;SDS011;10038;42.662;23.278;2023-07-28T08:52:25;3.43;;;3.13;;
19758;SDS011;10038;42.662;23.278;2023-07-28T08:54:52;4.47;;;3.47;;
19758;SDS011;10038;42.662;23.278;2023-07-28T08:57:19;4.40;;;3.20;;
19758;SDS011;10038;42.662;23.278;2023-07-28T08:59:46;4.33;;;3.70;;
19758;SDS011;10038;42.662;23.278;2023-07-28T09:02:14;6.33;;;3.50;;
19758;SDS011;10038;42.662;23.278;2023-07-28T09:04:40;8.30;;;3.50;;
19758;SDS011;10038;42.662;23.278;2023-07-28T09:07:07;4.83;;;3.67;;
19758;SDS011;10038;42.662;23.278;2023-07-28T09:09:36;4.47;;;3.33;;
19758;SDS011;10038;42.662;23.278;2023-07-28T09:12:03;5.40;;;3.53;;
19758;SDS011;10038;42.662;23.278;2023-07-28T09:14:29;4.27;;;3.70;;
19758;SDS011;10038;42.662;23.278;2023-07-28T09:16:59;7.20;;;3.20;;
19758;SDS011;10038;42.662;23.278;2023-07-28T09:19:31;3.67;;;3.37;;
19758;SDS011;10038;42.662;23.278;2023-07-28T09:21:58;6.90;;;3.73;;
19758;SDS011;10038;42.662;23.278;2023-07-28T09:24:29;4.60;;;3.50;;
19758;SDS011;10038;42.662;23.278;2023-07-28T09:26:58;3.80;;;3.40;;
19758;SDS011;10038;42.662;23.278;2023-07-28T09:29:25;10.80;;;3.77;;
19758;SDS011;10038;42.662;23.278;2023-07-28T09:31:53;4.50;;;3.40;;
19758;SDS011;10038;42.662;23.278;2023-07-28T09:34:23;3.70;;;3.40;;
19758;SDS011;10038;42.662;23.278;2023-07-28T09:36:52;4.17;;;3.50;;
19758;SDS011;10038;42.662;23.278;2023-07-28T09:39:18;3.63;;;3.33;;
19758;SDS011;10038;42.662;23.278;2023-07-28T09:41:46;5.73;;;3.20;;
19758;SDS011;10038;42.662;23.278;2023-07-28T09:44:14;3.70;;;3.03;;
19758;SDS011;10038;42.662;23.278;2023-07-28T09:46:49;5.83;;;3.50;;
19758;SDS011;10038;42.662;23.278;2023-07-28T09:49:16;4.87;;;3.20;;
19758;SDS011;10038;42.662;23.278;2023-07-28T09:51:45;4.87;;;2.73;;
19758;SDS011;10038;42.662;23.278;2023-07-28T09:54:16;6.40;;;4.00;;
19758;SDS011;10038;42.662;23.278;2023-07-28T09:56:44;4.07;;;2.90;;
19758;SDS011;10038;42.662;23.278;2023-07-28T09:59:15;4.97;;;3.40;;
19758;SDS011;10038;42.662;23.278;2023-07-28T10:01:43;4.57;;;3.00;;
19758;SDS011;10038;42.662;23.278;2023-07-28T10:04:10;4.73;;;3.60;;
19758;SDS011;10038;42.662;23.278;2023-07-28T10:06:36;3.07;;;2.80;;
19758;SDS011;10038;42.662;23.278;2023-07-28T10:09:03;5.40;;;3.23;;
19758;SDS011;10038;42.662;23.278;2023-07-28T10:11:30;3.20;;;3.00;;
19758;SDS011;10038;42.662;23.278;2023-07-28T10:13:57;3.60;;;3.30;;
19758;SDS011;10038;42.662;23.278;2023-07-28T10:16:31;4.93;;;2.87;;
19758;SDS011;10038;42.662;23.278;2023-07-28T10:19:03;7.30;;;3.00;;
19758;SDS011;10038;42.662;23.278;2023-07-28T10:21:30;4.50;;;2.90;;
19758;SDS011;10038;42.662;23.278;2023-07-28T10:23:57;8.47;;;3.07;;
19758;SDS011;10038;42.662;23.278;2023-07-28T10:26:36;7.20;;;2.80;;
19758;SDS011;10038;42.662;23.278;2023-07-28T10:29:09;2.77;;;2.50;;
19758;SDS011;10038;42.662;23.278;2023-07-28T10:31:37;3.40;;;3.10;;
19758;SDS011;10038;42.662;23.278;2023-07-28T10:34:15;3.30;;;2.43;;
19758;SDS011;10038;42.662;23.278;2023-07-28T10:36:43;2.50;;;2.30;;
19758;SDS011;10038;42.662;23.278;2023-07-28T10:39:12;2.70;;;2.50;;
19758;SDS011;10038;42.662;23.278;2023-07-28T10:41:40;2.97;;;2.73;;
19758;SDS011;10038;42.662;23.278;2023-07-28T10:44:07;3.80;;;3.50;;
19758;SDS011;10038;42.662;23.278;2023-07-28T10:46:34;5.43;;;3.40;;
19758;SDS011;10038;42.662;23.278;2023-07-28T10:49:05;3.10;;;2.80;;
19758;SDS011;10038;42.662;23.278;2023-07-28T10:51:32;4.47;;;3.07;;
19758;SDS011;10038;42.662;23.278;2023-07-28T10:54:02;3.70;;;3.10;;
19758;SDS011;10038;42.662;23.278;2023-07-28T10:56:29;5.60;;;2.70;;
19758;SDS011;10038;42.662;23.278;2023-07-28T10:58:56;2.43;;;2.20;;
19758;SDS011;10038;42.662;23.278;2023-07-28T11:01:24;2.93;;;2.70;;
19758;SDS011;10038;42.662;23.278;2023-07-28T11:03:51;3.60;;;2.30;;
19758;SDS011;10038;42.662;23.278;2023-07-28T11:06:19;3.00;;;2.70;;
19758;SDS011;10038;42.662;23.278;2023-07-28T11:08:46;2.47;;;2.20;;
19758;SDS011;10038;42.662;23.278;2023-07-28T11:11:13;2.30;;;2.10;;
19758;SDS011;10038;42.662;23.278;2023-07-28T11:13:40;2.60;;;2.40;;
19758;SDS011;10038;42.662;23.278;2023-07-28T11:16:07;2.50;;;2.30;;
19758;SDS011;10038;42.662;23.278;2023-07-28T11:18:35;3.20;;;2.50;;
19758;SDS011;10038;42.662;23.278;2023-07-28T11:21:02;3.70;;;2.80;;
19758;SDS011;10038;42.662;23.278;2023-07-28T11:23:30;5.60;;;2.37;;
19758;SDS011;10038;42.662;23.278;2023-07-28T11:25:58;2.50;;;2.30;;
19758;SDS011;10038;42.662;23.278;2023-07-28T11:28:25;2.63;;;2.40;;
19758;SDS011;10038;42.662;23.278;2023-07-28T11:30:51;2.63;;;2.37;;
19758;SDS011;10038;42.662;23.278;2023-07-28T11:33:19;2.20;;;2.00;;
19758;SDS011;10038;42.662;23.278;2023-07-28T11:35:45;3.23;;;2.17;;
19758;SDS011;10038;42.662;23.278;2023-07-28T11:38:12;3.30;;;2.20;;
19758;SDS011;10038;42.662;23.278;2023-07-28T11:40:44;3.73;;;2.60;;
19758;SDS011;10038;42.662;23.278;2023-07-28T11:43:11;2.40;;;2.20;;
19758;SDS011;10038;42.662;23.278;2023-07-28T11:45:38;3.27;;;2.17;;
19758;SDS011;10038;42.662;23.278;2023-07-28T11:48:04;3.10;;;2.90;;
19758;SDS011;10038;42.662;23.278;2023-07-28T11:50:34;2.50;;;2.30;;
19758;SDS011;10038;42.662;23.278;2023-07-28T11:53:01;2.67;;;2.47;;
19758;SDS011;10038;42.662;23.278;2023-07-28T11:55:28;3.40;;;2.50;;
19758;SDS011;10038;42.662;23.278;2023-07-28T11:57:56;2.50;;;2.30;;
19758;SDS011;10038;42.662;23.278;2023-07-28T12:00:28;3.67;;;2.40;;
19758;SDS011;10038;42.662;23.278;2023-07-28T12:03:02;3.27;;;2.50;;
19758;SDS011;10038;42.662;23.278;2023-07-28T12:05:29;3.00;;;2.73;;
19758;SDS011;10038;42.662;23.278;2023-07-28T12:07:56;5.30;;;2.60;;
19758;SDS011;10038;42.662;23.278;2023-07-28T12:10:23;2.90;;;2.70;;
19758;SDS011;10038;42.662;23.278;2023-07-28T12:12:49;2.50;;;2.30;;
19758;SDS011;10038;42.662;23.278;2023-07-28T12:15:24;3.40;;;2.50;;
19758;SDS011;10038;42.662;23.278;2023-07-28T12:18:00;2.77;;;2.57;;
19758;SDS011;10038;42.662;23.278;2023-07-28T12:20:26;2.97;;;2.30;;
19758;SDS011;10038;42.662;23.278;2023-07-28T12:22:52;5.27;;;3.17;;
19758;SDS011;10038;42.662;23.278;2023-07-28T12:25:19;5.00;;;2.83;;
19758;SDS011;10038;42.662;23.278;2023-07-28T12:27:45;2.83;;;2.63;;
19758;SDS011;10038;42.662;23.278;2023-07-28T12:30:12;2.00;;;1.90;;
19758;SDS011;10038;42.662;23.278;2023-07-28T12:32:40;3.13;;;2.63;;
19758;SDS011;10038;42.662;23.278;2023-07-28T12:35:07;2.93;;;2.73;;
19758;SDS011;10038;42.662;23.278;2023-07-28T12:37:34;3.70;;;2.97;;
19758;SDS011;10038;42.662;23.278;2023-07-28T12:40:01;2.97;;;2.70;;
19758;SDS011;10038;42.662;23.278;2023-07-28T12:42:28;3.13;;;2.40;;
19758;SDS011;10038;42.662;23.278;2023-07-28T12:44:55;2.83;;;2.40;;
19758;SDS011;10038;42.662;23.278;2023-07-28T12:47:21;2.80;;;2.60;;
19758;SDS011;10038;42.662;23.278;2023-07-28T12:49:49;3.43;;;2.70;;
19758;SDS011;10038;42.662;23.278;2023-07-28T12:52:16;2.93;;;2.53;;
19758;SDS011;10038;42.662;23.278;2023-07-28T12:54:42;6.43;;;2.87;;
19758;SDS011;10038;42.662;23.278;2023-07-28T12:57:09;2.57;;;2.37;;
19758;SDS011;10038;42.662;23.278;2023-07-28T12:59:37;2.43;;;2.23;;
19758;SDS011;10038;42.662;23.278;2023-07-28T13:02:04;3.00;;;2.50;;
19758;SDS011;10038;42.662;23.278;2023-07-28T13:04:30;3.03;;;2.37;;
19758;SDS011;10038;42.662;23.278;2023-07-28T13:06:59;2.90;;;2.70;;
19758;SDS011;10038;42.662;23.278;2023-07-28T13:09:25;4.90;;;2.67;;
19758;SDS011;10038;42.662;23.278;2023-07-28T13:11:52;2.57;;;2.37;;
19758;SDS011;10038;42.662;23.278;2023-07-28T13:14:19;3.00;;;2.17;;
19758;SDS011;10038;42.662;23.278;2023-07-28T13:16:45;2.60;;;2.40;;
19758;SDS011;10038;42.662;23.278;2023-07-28T13:19:12;3.87;;;2.37;;
19758;SDS011;10038;42.662;23.278;2023-07-28T13:21:38;3.70;;;2.50;;
19758;SDS011;10038;42.662;23.278;2023-07-28T13:24:06;3.50;;;2.33;;
19758;SDS011;10038;42.662;23.278;2023-07-28T13:26:33;2.60;;;2.40;;
19758;SDS011;10038;42.662;23.278;2023-07-28T13:29:00;2.43;;;2.23;;
19758;SDS011;10038;42.662;23.278;2023-07-28T13:31:27;2.77;;;2.57;;
19758;SDS011;10038;42.662;23.278;2023-07-28T13:33:54;4.30;;;2.60;;
19758;SDS011;10038;42.662;23.278;2023-07-28T13:36:20;2.47;;;2.27;;
19758;SDS011;10038;42.662;23.278;2023-07-28T13:38:47;2.37;;;2.17;;
19758;SDS011;10038;42.662;23.278;2023-07-28T13:41:15;2.40;;;2.20;;
19758;SDS011;10038;42.662;23.278;2023-07-28T13:43:42;7.10;;;3.03;;
19758;SDS011;10038;42.662;23.278;2023-07-28T13:46:09;3.23;;;2.50;;
19758;SDS011;10038;42.662;23.278;2023-07-28T13:48:36;2.70;;;2.50;;
19758;SDS011;10038;42.662;23.278;2023-07-28T13:51:04;2.53;;;2.17;;
19758;SDS011;10038;42.662;23.278;2023-07-28T13:53:31;4.50;;;2.13;;
19758;SDS011;10038;42.662;23.278;2023-07-28T13:55:57;4.77;;;2.20;;
19758;SDS011;10038;42.662;23.278;2023-07-28T13:58:25;2.67;;;2.47;;
19758;SDS011;10038;42.662;23.278;2023-07-28T14:00:52;2.60;;;2.40;;
19758;SDS011;10038;42.662;23.278;2023-07-28T14:03:18;3.83;;;2.60;;
19758;SDS011;10038;42.662;23.278;2023-07-28T14:05:45;2.90;;;2.70;;
19758;SDS011;10038;42.662;23.278;2023-07-28T14:08:11;2.40;;;2.20;;
19758;SDS011;10038;42.662;23.278;2023-07-28T14:10:38;2.90;;;2.60;;
19758;SDS011;10038;42.662;23.278;2023-07-28T14:13:15;3.10;;;2.57;;
19758;SDS011;10038;42.662;23.278;2023-07-28T14:16:13;2.53;;;2.17;;
19758;SDS011;10038;42.662;23.278;2023-07-28T14:18:39;4.53;;;2.83;;
19758;SDS011;10038;42.662;23.278;2023-07-28T14:21:06;2.43;;;2.23;;
19758;SDS011;10038;42.662;23.278;2023-07-28T14:23:33;2.47;;;2.27;;
19758;SDS011;10038;42.662;23.278;2023-07-28T14:26:00;2.90;;;2.60;;
19758;SDS011;10038;42.662;23.278;2023-07-28T14:28:26;2.63;;;2.30;;
19758;SDS011;10038;42.662;23.278;2023-07-28T14:30:53;8.60;;;2.80;;
19758;SDS011;10038;42.662;23.278;2023-07-28T14:33:21;2.90;;;2.70;;
19758;SDS011;10038;42.662;23.278;2023-07-28T14:35:48;3.30;;;2.43;;